createdAt,value
2024-01-14T00:01:16.475Z,4.28
2024-01-14T00:04:04.364Z,4.47
2024-01-14T00:06:32.010Z,4.10
2024-01-14T00:08:59.673Z,4.22
2024-01-14T00:11:27.964Z,4.10
2024-01-14T00:13:55.651Z,4.28
2024-01-14T00:16:23.319Z,4.40
2024-01-14T00:18:51.043Z,4.25
2024-01-14T00:21:18.654Z,4.60
2024-01-14T00:23:46.958Z,4.38
2024-01-14T00:26:14.348Z,3.88
2024-01-14T00:28:42.081Z,4.35
2024-01-14T00:31:09.581Z,4.50
2024-01-14T00:33:37.695Z,4.25
2024-01-14T00:36:05.717Z,4.35
2024-01-14T00:38:33.546Z,4.53
2024-01-14T00:41:01.254Z,4.18
2024-01-14T00:43:29.211Z,3.97
2024-01-14T00:45:56.736Z,4.43
2024-01-14T00:48:24.558Z,4.20
2024-01-14T00:50:52.230Z,3.92
2024-01-14T00:53:19.840Z,4.13
2024-01-14T00:55:48.105Z,4.32
2024-01-14T00:58:16.060Z,3.90
2024-01-14T01:00:44.004Z,4.10
2024-01-14T01:03:12.077Z,4.00
2024-01-14T01:05:40.173Z,4.07
2024-01-14T01:08:07.848Z,3.92
2024-01-14T01:10:35.377Z,3.72
2024-01-14T01:13:03.270Z,4.07
2024-01-14T01:15:31.100Z,3.72
2024-01-14T01:17:58.897Z,3.58
2024-01-14T01:20:26.484Z,3.58
2024-01-14T01:22:54.767Z,4.25
2024-01-14T01:25:22.256Z,4.25
2024-01-14T01:27:49.900Z,3.63
2024-01-14T01:30:17.365Z,3.72
2024-01-14T01:32:45.268Z,3.63
2024-01-14T01:35:12.992Z,3.60
2024-01-14T01:37:40.802Z,3.83
2024-01-14T01:40:10.612Z,3.95
2024-01-14T01:42:38.300Z,4.10
2024-01-14T01:45:06.174Z,3.60
2024-01-14T01:47:34.638Z,3.78
2024-01-14T01:50:02.556Z,3.47
2024-01-14T01:52:30.689Z,3.45
2024-01-14T01:54:58.679Z,3.42
2024-01-14T01:57:28.956Z,3.70
2024-01-14T01:59:56.804Z,3.33
2024-01-14T02:02:24.765Z,3.17
2024-01-14T02:04:52.900Z,3.47
2024-01-14T02:07:23.409Z,3.88
2024-01-14T02:09:51.476Z,3.05
2024-01-14T02:12:19.137Z,3.35
2024-01-14T02:14:46.827Z,3.67
2024-01-14T02:17:14.494Z,3.53
2024-01-14T02:19:42.124Z,3.20
2024-01-14T02:22:17.307Z,3.40
2024-01-14T02:24:45.231Z,3.45
2024-01-14T02:27:12.974Z,3.38
2024-01-14T02:29:40.414Z,3.22
2024-01-14T02:32:07.949Z,3.20
2024-01-14T02:34:37.259Z,3.22
2024-01-14T02:37:05.136Z,3.40
2024-01-14T02:39:32.710Z,3.35
2024-01-14T02:42:00.637Z,3.50
2024-01-14T02:44:28.046Z,3.08
2024-01-14T02:46:55.808Z,3.40
2024-01-14T02:49:23.380Z,3.60
2024-01-14T02:51:51.274Z,3.50
2024-01-14T02:54:18.963Z,3.00
2024-01-14T02:56:46.606Z,3.10
2024-01-14T02:59:13.943Z,3.30
2024-01-14T03:01:47.516Z,3.00
2024-01-14T03:04:15.685Z,2.83
2024-01-14T03:06:43.887Z,2.90
2024-01-14T03:09:11.647Z,2.90
2024-01-14T03:11:39.293Z,2.97
2024-01-14T03:14:06.663Z,3.15
2024-01-14T03:16:34.283Z,3.42
2024-01-14T03:19:01.912Z,3.30
2024-01-14T03:21:29.845Z,3.42
2024-01-14T03:23:57.526Z,3.50
2024-01-14T03:26:25.141Z,3.63
2024-01-14T03:28:52.423Z,3.17
2024-01-14T03:31:20.178Z,3.47
2024-01-14T03:33:47.671Z,3.00
2024-01-14T03:36:16.069Z,3.10
2024-01-14T03:38:43.898Z,3.30
2024-01-14T03:41:12.484Z,3.33
2024-01-14T03:43:39.896Z,3.10
2024-01-14T03:46:08.338Z,2.80
2024-01-14T03:48:35.768Z,2.97
2024-01-14T03:51:03.939Z,2.83
2024-01-14T03:53:31.307Z,3.15
2024-01-14T03:55:58.895Z,2.80
2024-01-14T03:58:26.396Z,3.13
2024-01-14T04:00:54.156Z,3.10
2024-01-14T04:03:21.792Z,2.92
2024-01-14T04:05:49.801Z,2.83
2024-01-14T04:08:17.361Z,2.65
2024-01-14T04:10:45.041Z,2.90
2024-01-14T04:13:32.261Z,2.67
2024-01-14T04:16:01.769Z,2.70
2024-01-14T04:18:30.464Z,2.85
2024-01-14T04:20:58.597Z,3.20
2024-01-14T04:23:26.028Z,3.03
2024-01-14T04:25:54.151Z,3.05
2024-01-14T04:28:21.920Z,2.60
2024-01-14T04:30:52.411Z,2.90
2024-01-14T04:33:19.978Z,3.10
2024-01-14T04:35:48.116Z,2.60
2024-01-14T04:38:15.523Z,2.95
2024-01-14T04:40:43.128Z,2.65
2024-01-14T04:43:12.839Z,2.97
2024-01-14T04:45:40.602Z,3.00
2024-01-14T04:48:08.268Z,2.65
2024-01-14T04:50:37.314Z,3.00
2024-01-14T04:53:04.733Z,2.90
2024-01-14T04:55:32.680Z,3.08
2024-01-14T04:58:00.346Z,3.17
2024-01-14T05:00:27.735Z,2.85
2024-01-14T05:02:55.357Z,3.03
2024-01-14T05:05:22.744Z,2.67
2024-01-14T05:07:50.374Z,2.60
2024-01-14T05:10:17.960Z,2.67
2024-01-14T05:12:45.568Z,2.70
2024-01-14T05:15:13.148Z,3.00
2024-01-14T05:17:41.035Z,3.10
2024-01-14T05:20:10.363Z,2.80
2024-01-14T05:22:37.941Z,2.92
2024-01-14T05:25:06.001Z,3.17
2024-01-14T05:27:33.634Z,2.90
2024-01-14T05:30:01.160Z,3.33
2024-01-14T05:32:29.105Z,2.83
2024-01-14T05:34:56.509Z,2.67
2024-01-14T05:37:24.174Z,3.10
2024-01-14T05:39:51.579Z,2.63
2024-01-14T05:42:19.176Z,2.67
2024-01-14T05:44:46.549Z,3.08
2024-01-14T05:47:14.092Z,2.67
2024-01-14T05:49:41.694Z,2.90
2024-01-14T05:52:09.341Z,2.90
2024-01-14T05:54:36.964Z,2.80
2024-01-14T05:57:05.371Z,3.05
2024-01-14T05:59:32.898Z,3.08
2024-01-14T06:02:00.562Z,2.60
2024-01-14T06:04:28.205Z,2.65
2024-01-14T06:06:55.900Z,2.50
2024-01-14T06:09:23.356Z,2.92
2024-01-14T06:11:51.098Z,2.47
2024-01-14T06:14:18.644Z,2.53
2024-01-14T06:16:46.377Z,2.38
2024-01-14T06:19:13.941Z,2.72
2024-01-14T06:21:43.355Z,2.20
2024-01-14T06:24:13.724Z,2.95
2024-01-14T06:26:41.460Z,2.50
2024-01-14T06:29:09.019Z,2.40
2024-01-14T06:31:36.978Z,2.53
2024-01-14T06:34:05.074Z,2.30
2024-01-14T06:36:32.951Z,2.60
2024-01-14T06:39:00.553Z,3.00
2024-01-14T06:41:29.314Z,2.60
2024-01-14T06:43:56.826Z,2.65
2024-01-14T06:46:24.545Z,2.85
2024-01-14T06:48:52.016Z,2.35
2024-01-14T06:51:19.519Z,2.42
2024-01-14T06:53:47.627Z,2.25
2024-01-14T06:56:17.613Z,2.42
2024-01-14T06:58:50.621Z,2.70
2024-01-14T07:01:18.111Z,2.67
2024-01-14T07:03:45.828Z,2.28
2024-01-14T07:06:13.398Z,2.83
2024-01-14T07:08:41.431Z,2.67
2024-01-14T07:11:08.859Z,3.22
2024-01-14T07:13:36.455Z,3.40
2024-01-14T07:16:04.252Z,3.17
2024-01-14T07:18:32.025Z,3.22
2024-01-14T07:20:59.545Z,3.40
2024-01-14T07:23:43.201Z,3.17
2024-01-14T07:26:21.753Z,3.33
2024-01-14T07:28:53.803Z,3.08
2024-01-14T07:31:24.244Z,3.22
2024-01-14T07:33:52.802Z,3.75
2024-01-14T07:36:21.157Z,3.30
2024-01-14T07:38:50.737Z,3.13
2024-01-14T07:41:18.186Z,3.10
2024-01-14T07:43:46.136Z,3.60
2024-01-14T07:46:13.695Z,3.58
2024-01-14T07:48:43.401Z,3.05
2024-01-14T07:51:11.154Z,3.80
2024-01-14T07:53:38.921Z,3.80
2024-01-14T07:56:06.610Z,3.70
2024-01-14T07:58:34.258Z,3.65
2024-01-14T08:01:03.498Z,3.25
2024-01-14T08:03:32.571Z,3.40
2024-01-14T08:06:01.242Z,3.55
2024-01-14T08:08:29.820Z,3.17
2024-01-14T08:10:57.353Z,3.30
2024-01-14T08:13:25.112Z,3.40
2024-01-14T08:15:57.851Z,3.22
2024-01-14T08:18:31.909Z,3.67
2024-01-14T08:21:00.484Z,4.38
2024-01-14T08:23:33.708Z,3.53
2024-01-14T08:26:02.662Z,3.58
2024-01-14T08:28:32.175Z,3.47
2024-01-14T08:30:59.808Z,3.65
2024-01-14T08:33:28.998Z,4.15
2024-01-14T08:35:57.113Z,3.30
2024-01-14T08:38:25.495Z,3.00
2024-01-14T08:40:53.530Z,2.90
2024-01-14T08:43:21.475Z,3.38
2024-01-14T08:45:48.885Z,4.18
2024-01-14T08:48:16.921Z,3.67
2024-01-14T08:50:44.444Z,3.80
2024-01-14T08:53:11.991Z,3.70
2024-01-14T08:55:39.434Z,3.40
2024-01-14T08:58:07.103Z,3.13
2024-01-14T09:00:34.694Z,4.03
2024-01-14T09:03:02.435Z,3.58
2024-01-14T09:05:29.975Z,3.58
2024-01-14T09:07:57.724Z,3.28
2024-01-14T09:10:25.154Z,3.35
2024-01-14T09:12:52.825Z,3.78
2024-01-14T09:15:21.749Z,3.40
2024-01-14T09:17:49.836Z,3.78
2024-01-14T09:20:17.382Z,4.07
2024-01-14T09:22:45.039Z,3.05
2024-01-14T09:25:13.588Z,3.75
2024-01-14T09:27:41.673Z,3.58
2024-01-14T09:30:09.525Z,3.53
2024-01-14T09:32:37.388Z,3.90
2024-01-14T09:35:05.379Z,3.47
2024-01-14T09:37:33.305Z,3.83
2024-01-14T09:40:00.712Z,3.20
2024-01-14T09:42:38.206Z,3.50
2024-01-14T09:45:06.975Z,3.70
2024-01-14T09:47:36.404Z,3.13
2024-01-14T09:50:04.499Z,3.20
2024-01-14T09:52:33.999Z,3.67
2024-01-14T09:55:02.368Z,3.63
2024-01-14T09:57:33.301Z,3.45
2024-01-14T10:00:06.643Z,3.30
2024-01-14T10:02:37.458Z,3.50
2024-01-14T10:05:05.486Z,2.97
2024-01-14T10:07:34.727Z,3.40
2024-01-14T10:10:02.185Z,3.25
2024-01-14T10:12:30.484Z,3.10
2024-01-14T10:15:01.866Z,3.00
2024-01-14T10:17:30.924Z,3.15
2024-01-14T10:20:01.932Z,3.20
2024-01-14T10:22:30.159Z,2.85
2024-01-14T10:24:58.180Z,3.35
2024-01-14T10:27:35.366Z,3.13
2024-01-14T10:30:14.005Z,3.10
2024-01-14T10:33:16.830Z,3.50
2024-01-14T10:35:31.669Z,3.20
2024-01-14T10:38:00.015Z,3.28
2024-01-14T10:40:28.011Z,3.25
2024-01-14T10:42:55.933Z,3.30
2024-01-14T10:45:23.698Z,3.33
2024-01-14T10:48:00.560Z,3.10
2024-01-14T10:53:04.627Z,3.60
2024-01-14T10:55:41.801Z,2.88
2024-01-14T10:58:18.959Z,3.47
2024-01-14T11:00:51.492Z,3.08
2024-01-14T11:03:19.950Z,3.55
2024-01-14T11:05:47.840Z,3.33
2024-01-14T11:08:17.686Z,3.47
2024-01-14T11:10:46.060Z,3.40
2024-01-14T11:13:29.607Z,3.20
2024-01-14T11:16:14.933Z,2.97
2024-01-14T11:21:48.907Z,2.72
2024-01-14T11:24:26.760Z,4.53
2024-01-14T11:26:56.121Z,4.35
2024-01-14T11:29:33.320Z,5.70
2024-01-14T11:32:14.064Z,5.43
2024-01-14T11:34:48.286Z,6.53
2024-01-14T11:37:31.847Z,6.37
2024-01-14T11:40:17.855Z,7.57
2024-01-14T11:42:48.385Z,6.75
2024-01-14T11:45:25.469Z,7.03
2024-01-14T11:47:54.797Z,7.63
2024-01-14T11:50:25.171Z,7.47
2024-01-14T11:52:54.406Z,7.38
2024-01-14T11:55:26.288Z,7.15
2024-01-14T11:57:55.243Z,7.18
2024-01-14T12:00:25.452Z,7.20
2024-01-14T12:03:10.543Z,7.75
2024-01-14T12:05:40.585Z,7.30
2024-01-14T12:08:09.745Z,7.00
2024-01-14T12:10:37.717Z,6.63
2024-01-14T12:13:10.489Z,7.00
2024-01-14T12:15:39.853Z,7.13
2024-01-14T12:18:09.230Z,7.10
2024-01-14T12:20:37.396Z,6.30
2024-01-14T12:23:07.540Z,7.22
2024-01-14T12:25:37.446Z,8.05
2024-01-14T12:28:05.272Z,6.93
2024-01-14T12:30:36.303Z,6.60
2024-01-14T12:33:07.523Z,6.15
2024-01-14T12:35:39.867Z,6.10
2024-01-14T12:38:09.448Z,6.85
2024-01-14T12:40:37.998Z,6.30
2024-01-14T12:43:10.459Z,6.45
2024-01-14T12:45:49.874Z,7.05
2024-01-14T12:48:23.308Z,6.72
2024-01-14T12:51:01.908Z,5.88
2024-01-14T12:53:31.104Z,6.22
2024-01-14T12:56:12.665Z,6.13
2024-01-14T12:58:40.744Z,6.93
2024-01-14T13:01:10.689Z,5.70
2024-01-14T13:03:42.359Z,6.28
2024-01-14T13:06:10.227Z,6.43
2024-01-14T13:08:37.671Z,5.53
2024-01-14T13:11:05.480Z,6.18
2024-01-14T13:13:36.739Z,5.65
2024-01-14T13:16:05.729Z,6.57
2024-01-14T13:18:33.190Z,5.75
2024-01-14T13:21:00.852Z,5.82
2024-01-14T13:23:28.232Z,5.95
2024-01-14T13:25:55.846Z,5.85
2024-01-14T13:28:24.702Z,5.88
2024-01-14T13:30:53.768Z,5.68
2024-01-14T13:33:21.409Z,5.80
2024-01-14T13:35:49.085Z,6.28
2024-01-14T13:38:16.493Z,5.45
2024-01-14T13:40:44.379Z,5.38
2024-01-14T13:43:12.113Z,5.47
2024-01-14T13:45:39.693Z,5.53
2024-01-14T13:48:07.420Z,5.40
2024-01-14T13:50:35.430Z,5.90
2024-01-14T13:53:02.799Z,5.18
2024-01-14T13:55:30.479Z,5.63
2024-01-14T13:57:57.849Z,5.65
2024-01-14T14:00:25.651Z,5.80
2024-01-14T14:02:53.459Z,5.50
2024-01-14T14:05:21.293Z,5.90
2024-01-14T14:07:49.119Z,5.47
2024-01-14T14:10:17.524Z,5.82
2024-01-14T14:12:45.396Z,5.88
2024-01-14T14:15:13.183Z,5.85
2024-01-14T14:17:43.133Z,5.43
2024-01-14T14:20:12.188Z,5.95
2024-01-14T14:22:39.740Z,5.97
2024-01-14T14:25:07.785Z,5.78
2024-01-14T14:27:35.136Z,6.10
2024-01-14T14:30:03.183Z,5.88
2024-01-14T14:32:30.860Z,5.07
2024-01-14T14:34:58.712Z,5.80
2024-01-14T14:37:27.688Z,5.95
2024-01-14T14:39:55.676Z,5.78
2024-01-14T14:42:23.471Z,5.25
2024-01-14T14:44:51.078Z,6.03
2024-01-14T14:47:20.658Z,6.07
2024-01-14T14:49:49.439Z,5.20
2024-01-14T14:52:16.960Z,5.40
2024-01-14T14:54:44.548Z,5.60
2024-01-14T14:57:11.907Z,5.50
2024-01-14T14:59:39.588Z,5.05
2024-01-14T15:02:07.124Z,4.82
2024-01-14T15:04:34.745Z,5.30
2024-01-14T15:07:02.221Z,5.25
2024-01-14T15:09:29.931Z,5.57
2024-01-14T15:11:57.409Z,5.90
2024-01-14T15:14:25.448Z,5.32
2024-01-14T15:16:53.550Z,5.18
2024-01-14T15:19:21.340Z,5.00
2024-01-14T15:21:49.079Z,5.20
2024-01-14T15:24:16.814Z,5.43
2024-01-14T15:26:44.575Z,5.65
2024-01-14T15:29:12.181Z,5.18
2024-01-14T15:31:39.980Z,5.65
2024-01-14T15:34:08.266Z,5.22
2024-01-14T15:36:36.045Z,4.93
2024-01-14T15:39:04.898Z,5.50
2024-01-14T15:41:36.204Z,5.68
2024-01-14T15:44:04.677Z,5.45
2024-01-14T15:46:32.528Z,5.10
2024-01-14T15:49:00.216Z,5.30
2024-01-14T15:51:28.343Z,5.43
2024-01-14T15:53:56.017Z,5.63
2024-01-14T15:56:23.771Z,5.35
2024-01-14T15:58:51.348Z,5.55
2024-01-14T16:01:21.360Z,5.53
2024-01-14T16:03:50.036Z,5.13
2024-01-14T16:06:18.179Z,5.50
2024-01-14T16:08:46.904Z,4.90
2024-01-14T16:11:15.672Z,5.10
2024-01-14T16:13:43.573Z,5.18
2024-01-14T16:16:11.423Z,5.20
2024-01-14T16:18:39.124Z,4.93
2024-01-14T16:21:08.148Z,5.13
2024-01-14T16:23:39.504Z,5.07
2024-01-14T16:26:09.346Z,4.43
2024-01-14T16:28:37.731Z,4.93
2024-01-14T16:31:11.658Z,5.45
2024-01-14T16:33:44.273Z,5.22
2024-01-14T16:36:14.570Z,5.30
2024-01-14T16:38:43.162Z,5.32
2024-01-14T16:41:10.815Z,5.50
2024-01-14T16:43:38.932Z,4.70
2024-01-14T16:46:06.995Z,4.95
2024-01-14T16:48:35.397Z,4.82
2024-01-14T16:51:09.412Z,4.65
2024-01-14T16:53:41.321Z,4.80
2024-01-14T16:56:14.056Z,4.47
2024-01-14T16:58:44.044Z,4.80
2024-01-14T17:01:16.793Z,5.05
2024-01-14T17:03:50.216Z,4.30
2024-01-14T17:06:18.853Z,4.60
2024-01-14T17:08:47.822Z,4.95
2024-01-14T17:11:19.514Z,4.72
2024-01-14T17:13:47.932Z,4.95
2024-01-14T17:16:27.006Z,5.30
2024-01-14T17:18:59.607Z,4.30
2024-01-14T17:21:28.339Z,4.43
2024-01-14T17:23:57.360Z,4.50
2024-01-14T17:26:24.741Z,4.72
2024-01-14T17:28:52.391Z,4.22
2024-01-14T17:31:20.537Z,4.53
2024-01-14T17:33:48.750Z,4.20
2024-01-14T17:36:18.508Z,4.28
2024-01-14T17:38:48.386Z,4.72
2024-01-14T17:41:16.647Z,4.53
2024-01-14T17:43:45.044Z,4.88
2024-01-14T17:46:13.208Z,4.97
2024-01-14T17:48:44.170Z,4.80
2024-01-14T17:51:13.229Z,4.35
2024-01-14T17:53:42.547Z,4.55
2024-01-14T17:56:10.309Z,4.50
2024-01-14T17:58:38.837Z,4.93
2024-01-14T18:01:09.996Z,4.68
2024-01-14T18:03:40.616Z,4.28
2024-01-14T18:06:10.323Z,5.07
2024-01-14T18:08:38.631Z,4.20
2024-01-14T18:11:06.040Z,4.78
2024-01-14T18:13:33.629Z,4.82
2024-01-14T18:16:01.651Z,4.10
2024-01-14T18:18:29.604Z,4.45
2024-01-14T18:20:58.626Z,5.00
2024-01-14T18:23:26.296Z,4.10
2024-01-14T18:25:53.953Z,4.80
2024-01-14T18:28:21.669Z,4.78
2024-01-14T18:30:49.493Z,4.80
2024-01-14T18:33:17.444Z,4.40
2024-01-14T18:35:46.767Z,4.07
2024-01-14T18:38:16.124Z,4.47
2024-01-14T18:40:44.123Z,4.90
2024-01-14T18:43:12.582Z,4.65
2024-01-14T18:45:40.120Z,5.53
2024-01-14T18:48:08.870Z,4.78
2024-01-14T18:50:37.038Z,4.88
2024-01-14T18:53:05.938Z,5.15
2024-01-14T18:55:38.948Z,5.00
2024-01-14T18:58:10.224Z,5.05
2024-01-14T19:00:37.771Z,5.47
2024-01-14T19:03:05.901Z,4.55
2024-01-14T19:05:34.543Z,5.45
2024-01-14T19:08:02.221Z,5.20
2024-01-14T19:10:29.730Z,5.35
2024-01-14T19:13:00.201Z,4.80
2024-01-14T19:15:28.365Z,5.00
2024-01-14T19:17:56.340Z,5.25
2024-01-14T19:20:24.051Z,4.63
2024-01-14T19:22:52.005Z,5.07
2024-01-14T19:25:19.715Z,5.03
2024-01-14T19:27:48.642Z,5.30
2024-01-14T19:30:16.878Z,5.28
2024-01-14T19:32:44.901Z,5.10
2024-01-14T19:35:12.374Z,4.43
2024-01-14T19:37:40.273Z,4.93
2024-01-14T19:40:08.149Z,5.00
2024-01-14T19:42:35.998Z,4.72
2024-01-14T19:45:03.712Z,5.25
2024-01-14T19:47:31.497Z,4.80
2024-01-14T19:49:58.998Z,4.43
2024-01-14T19:52:26.767Z,4.80
2024-01-14T19:54:54.199Z,5.30
2024-01-14T19:57:21.937Z,5.28
2024-01-14T19:59:49.681Z,5.38
2024-01-14T20:02:17.450Z,5.07
2024-01-14T20:04:44.925Z,4.30
2024-01-14T20:07:12.606Z,5.03
2024-01-14T20:09:40.021Z,5.38
2024-01-14T20:12:07.681Z,4.35
2024-01-14T20:14:36.911Z,4.65
2024-01-14T20:17:05.676Z,4.63
2024-01-14T20:19:33.377Z,4.57
2024-01-14T20:22:01.266Z,5.03
2024-01-14T20:24:32.042Z,4.97
2024-01-14T20:26:59.741Z,4.75
2024-01-14T20:29:27.330Z,4.78
2024-01-14T20:31:55.160Z,4.90
2024-01-14T20:34:24.625Z,4.80
2024-01-14T20:36:53.528Z,4.35
2024-01-14T20:39:21.374Z,4.50
2024-01-14T20:41:49.120Z,4.43
2024-01-14T20:44:16.518Z,4.47
2024-01-14T20:46:44.390Z,4.57
2024-01-14T20:49:11.947Z,4.45
2024-01-14T20:51:39.873Z,4.70
2024-01-14T20:54:07.266Z,4.72
2024-01-14T20:56:35.039Z,4.10
2024-01-14T20:59:02.348Z,4.35
2024-01-14T21:01:35.187Z,4.82
2024-01-14T21:04:03.677Z,4.93
2024-01-14T21:06:32.396Z,4.20
2024-01-14T21:08:59.839Z,4.43
2024-01-14T21:11:27.706Z,4.47
2024-01-14T21:13:55.330Z,4.13
2024-01-14T21:16:23.034Z,4.63
2024-01-14T21:18:50.635Z,4.20
2024-01-14T21:21:25.315Z,4.03
2024-01-14T21:23:52.901Z,3.97
2024-01-14T21:26:20.552Z,4.60
2024-01-14T21:28:51.302Z,4.45
2024-01-14T21:31:19.124Z,4.25
2024-01-14T21:33:46.569Z,4.72
2024-01-14T21:36:14.868Z,3.95
2024-01-14T21:38:42.224Z,4.70
2024-01-14T21:41:10.420Z,4.47
2024-01-14T21:43:38.086Z,4.75
2024-01-14T21:46:07.134Z,4.50
2024-01-14T21:48:35.160Z,4.30
2024-01-14T21:51:03.178Z,4.43
2024-01-14T21:53:30.910Z,4.70
2024-01-14T21:55:58.632Z,4.45
2024-01-14T21:58:25.999Z,4.53
2024-01-14T22:00:54.187Z,4.55
2024-01-14T22:03:22.733Z,4.90
2024-01-14T22:05:50.886Z,4.40
2024-01-14T22:08:18.784Z,5.03
2024-01-14T22:10:46.426Z,4.43
2024-01-14T22:13:13.818Z,4.47
2024-01-14T22:15:42.184Z,4.43
2024-01-14T22:18:09.835Z,5.03
2024-01-14T22:20:37.571Z,4.57
2024-01-14T22:23:05.321Z,4.32
2024-01-14T22:25:32.947Z,4.95
2024-01-14T22:28:00.617Z,4.80
2024-01-14T22:30:28.330Z,4.80
2024-01-14T22:32:55.779Z,4.75
2024-01-14T22:35:25.523Z,4.50
2024-01-14T22:37:54.226Z,4.68
2024-01-14T22:40:21.842Z,4.97
2024-01-14T22:42:49.241Z,4.95
2024-01-14T22:45:17.197Z,4.70
2024-01-14T22:47:44.510Z,4.75
2024-01-14T22:50:12.055Z,4.63
2024-01-14T22:52:39.425Z,4.72
2024-01-14T22:55:07.337Z,4.93
2024-01-14T22:57:34.787Z,5.05
2024-01-14T23:00:02.896Z,4.80
2024-01-14T23:02:32.129Z,4.70
2024-01-14T23:05:00.855Z,4.50
2024-01-14T23:07:28.384Z,4.13
2024-01-14T23:09:56.114Z,4.63
2024-01-14T23:12:23.675Z,4.35
2024-01-14T23:14:51.343Z,4.45
2024-01-14T23:17:18.682Z,4.32
2024-01-14T23:19:46.509Z,4.60
2024-01-14T23:22:14.080Z,4.93
2024-01-14T23:24:41.721Z,4.53
2024-01-14T23:27:09.182Z,4.90
2024-01-14T23:29:37.282Z,4.80
2024-01-14T23:32:04.892Z,4.55
2024-01-14T23:34:32.761Z,4.80
2024-01-14T23:37:00.518Z,4.68
2024-01-14T23:39:28.136Z,4.55
2024-01-14T23:41:55.477Z,4.65
2024-01-14T23:44:23.088Z,4.55
2024-01-14T23:46:50.542Z,4.35
2024-01-14T23:49:18.232Z,4.90
2024-01-14T23:51:46.126Z,4.70
2024-01-14T23:54:13.869Z,4.70
2024-01-14T23:56:41.151Z,4.80
2024-01-14T23:59:08.897Z,4.43
